DAUO

Guemar Airport

Guemar, Algeria
METAR DAUO 180200Z 11005KT CAVOK 28/22 Q1012
Observed Flight Rules
Aug-18 @ 02:00 UTC (28 minutes ago) Visual Flight Rules
Wind Visibility Clouds
110° at 5 knots 10,000+ meters
  • Clear skies
Temperatures Readings
Current 28°C / 82°F
Dewpoint 22°C / 72°F
Humidity 70%
Altimeter 29.88" Hg
Pressure 1012 hPa
Elevation 63
METAR DAUO 180200Z 11005KT CAVOK 28/22 Q1012
Observed Flight Rules
Aug-18 @ 02:00 UTC
(28 minutes ago)
VFR
Wind Visibility
110° at 5 knots 10,000+ meters
Clouds
  • Clear skies
Temperature Dewpoint
28°C / 82°F 22°C / 72°F
Humidity Altimeter Pressure
70% 29.88" Hg 1012 hPa